Terminal Aerodrome Forecast
Issued by NWS

Home | Current Version | Previous Version | Text Only | Print | Product List | Glossary On
Versions: 1 2 3 4 5 6 7 8 9 10 11 12 13 14 15
000
FTUS41 KAKQ 011742
TAFPHF
TAF
KPHF 011742Z 0118/0218 25011KT P6SM FEW060 SCT250
     FM012300 23006KT P6SM SCT120 BKN250
     FM020600 22004KT 5SM BR BKN100 BKN200
     FM021300 VRB04KT 6SM -RA HZ BKN050 BKN100=

USA.gov is the U.S. government's official web portal to all federal, state and local government web resources and services.